CXA8370 ZGSD-ZSHC
Flight info
| Callsign | CXA8370 |
|---|---|
| Flight time | 1h 29m |
| Altitude | 35100 |
| Route | ZAO DCT GUBLO W22 SHL G471 PLT A599 ELNEX |
| Aircraft | B738/M-SDE2E3FGILRWXY/LB2 |
Departure
| Time | 2026-04-24 09:20 |
|---|---|
| Airport | Zhuhai Jinwan Airport (ZGSD) |
Arrival
| Time | 2026-04-24 10:49 |
|---|---|
| Airport | Hangzhou Xiaoshan International Airport (ZSHC) |
| Time | Latitude | Longitude | Altitude | Speed | Heading |
|---|---|---|---|---|---|
| 2026-04-24 08:43 | 22.00825 | 113.37250 | 16 ft | 0 kts | 15° |
| 2026-04-24 08:58 | 22.00822 | 113.37249 | 11 ft | 2 kts | 15° |
| 2026-04-24 08:58 | 22.00805 | 113.37244 | 24 ft | 3 kts | 12° |
| 2026-04-24 08:59 | 22.00785 | 113.37239 | 26 ft | 3 kts | 21° |
| 2026-04-24 08:59 | 22.00770 | 113.37229 | 24 ft | 3 kts | 57° |
| 2026-04-24 08:59 | 22.00764 | 113.37218 | 24 ft | 3 kts | 69° |
| 2026-04-24 08:59 | 22.00760 | 113.37198 | 26 ft | 3 kts | 104° |
| 2026-04-24 09:00 | 22.00769 | 113.37181 | 22 ft | 3 kts | 135° |
| 2026-04-24 09:00 | 22.00779 | 113.37171 | 22 ft | 1 kts | 135° |
| 2026-04-24 09:00 | 22.00779 | 113.37170 | 22 ft | 0 kts | 135° |
| 2026-04-24 09:03 | 22.00777 | 113.37172 | 22 ft | 1 kts | 135° |
| 2026-04-24 09:04 | 22.00761 | 113.37189 | 22 ft | 5 kts | 135° |
| 2026-04-24 09:04 | 22.00724 | 113.37226 | 23 ft | 9 kts | 138° |
| 2026-04-24 09:04 | 22.00676 | 113.37275 | 22 ft | 10 kts | 135° |
| 2026-04-24 09:04 | 22.00660 | 113.37292 | 22 ft | 1 kts | 135° |
| 2026-04-24 09:05 | 22.00649 | 113.37303 | 22 ft | 4 kts | 135° |
| 2026-04-24 09:05 | 22.00615 | 113.37328 | 22 ft | 8 kts | 163° |
| 2026-04-24 09:05 | 22.00561 | 113.37295 | 22 ft | 11 kts | 224° |
| 2026-04-24 09:05 | 22.00496 | 113.37226 | 22 ft | 15 kts | 224° |
| 2026-04-24 09:06 | 22.00418 | 113.37144 | 21 ft | 16 kts | 224° |
| 2026-04-24 09:06 | 22.00334 | 113.37055 | 22 ft | 18 kts | 225° |
| 2026-04-24 09:06 | 22.00246 | 113.36960 | 21 ft | 18 kts | 225° |
| 2026-04-24 09:06 | 22.00155 | 113.36862 | 21 ft | 19 kts | 225° |
| 2026-04-24 09:07 | 22.00061 | 113.36760 | 22 ft | 19 kts | 225° |
| 2026-04-24 09:07 | 21.99963 | 113.36661 | 21 ft | 19 kts | 222° |
| 2026-04-24 09:07 | 21.99780 | 113.36469 | 21 ft | 18 kts | 224° |
| 2026-04-24 09:08 | 21.99693 | 113.36376 | 21 ft | 18 kts | 225° |
| 2026-04-24 09:08 | 21.99600 | 113.36278 | 21 ft | 19 kts | 225° |
| 2026-04-24 09:08 | 21.99544 | 113.36217 | 21 ft | 4 kts | 225° |
| 2026-04-24 09:08 | 21.99518 | 113.36198 | 21 ft | 5 kts | 193° |
| 2026-04-24 09:09 | 21.99481 | 113.36215 | 19 ft | 7 kts | 132° |
| 2026-04-24 09:09 | 21.99474 | 113.36223 | 21 ft | 0 kts | 134° |
| 2026-04-24 09:13 | 21.99466 | 113.36231 | 19 ft | 3 kts | 134° |
| 2026-04-24 09:13 | 21.99438 | 113.36262 | 19 ft | 8 kts | 134° |
| 2026-04-24 09:13 | 21.99411 | 113.36319 | 19 ft | 9 kts | 79° |
| 2026-04-24 09:14 | 21.99448 | 113.36365 | 20 ft | 0 kts | 44° |
| 2026-04-24 09:19 | 21.99549 | 113.36471 | 19 ft | 56 kts | 45° |
| 2026-04-24 09:20 | 22.00022 | 113.36965 | 19 ft | 132 kts | 44° |
| 2026-04-24 09:20 | 22.00807 | 113.37780 | 317 ft | 171 kts | 38° |
| 2026-04-24 09:20 | 22.01706 | 113.38612 | 1357 ft | 173 kts | 37° |
| 2026-04-24 09:20 | 22.02811 | 113.39470 | 1476 ft | 218 kts | 31° |
| 2026-04-24 09:21 | 22.04031 | 113.40283 | 2744 ft | 188 kts | 30° |
| 2026-04-24 09:21 | 22.05296 | 113.41164 | 2750 ft | 234 kts | 38° |
| 2026-04-24 09:21 | 22.06531 | 113.42343 | 3297 ft | 246 kts | 45° |
| 2026-04-24 09:21 | 22.07773 | 113.43655 | 3852 ft | 255 kts | 45° |
| 2026-04-24 09:22 | 22.09094 | 113.45050 | 4225 ft | 277 kts | 41° |
| 2026-04-24 09:22 | 22.10722 | 113.46237 | 4919 ft | 288 kts | 24° |
| 2026-04-24 09:22 | 22.12636 | 113.46802 | 5892 ft | 285 kts | 2° |
| 2026-04-24 09:22 | 22.14600 | 113.46630 | 6763 ft | 284 kts | 341° |
| 2026-04-24 09:23 | 22.16372 | 113.45744 | 7575 ft | 281 kts | 321° |
| 2026-04-24 09:23 | 22.17888 | 113.44458 | 8378 ft | 282 kts | 317° |
| 2026-04-24 09:23 | 22.19387 | 113.43086 | 9228 ft | 284 kts | 316° |
| 2026-04-24 09:23 | 22.20892 | 113.41692 | 10013 ft | 286 kts | 316° |
| 2026-04-24 09:24 | 22.22421 | 113.40261 | 10472 ft | 300 kts | 316° |
| 2026-04-24 09:24 | 22.24050 | 113.38716 | 10634 ft | 323 kts | 316° |
| 2026-04-24 09:24 | 22.25914 | 113.37249 | 10956 ft | 341 kts | 330° |
| 2026-04-24 09:24 | 22.28183 | 113.36410 | 11557 ft | 350 kts | 347° |
| 2026-04-24 09:25 | 22.30627 | 113.36315 | 12239 ft | 356 kts | 4° |
| 2026-04-24 09:25 | 22.33056 | 113.36928 | 12900 ft | 362 kts | 15° |
| 2026-04-24 09:25 | 22.35389 | 113.37997 | 13477 ft | 368 kts | 26° |
| 2026-04-24 09:25 | 22.37641 | 113.39361 | 14012 ft | 373 kts | 28° |
| 2026-04-24 09:26 | 22.39862 | 113.40786 | 14449 ft | 376 kts | 28° |
| 2026-04-24 09:26 | 22.42131 | 113.42262 | 14916 ft | 380 kts | 29° |
| 2026-04-24 09:26 | 22.44403 | 113.43737 | 15371 ft | 383 kts | 28° |
| 2026-04-24 09:26 | 22.46701 | 113.45219 | 15843 ft | 386 kts | 28° |
| 2026-04-24 09:27 | 22.49019 | 113.46702 | 16294 ft | 389 kts | 28° |
| 2026-04-24 09:27 | 22.51358 | 113.48193 | 16714 ft | 392 kts | 28° |
| 2026-04-24 09:27 | 22.53719 | 113.49692 | 17138 ft | 395 kts | 28° |
| 2026-04-24 09:27 | 22.56101 | 113.51203 | 17562 ft | 398 kts | 28° |
| 2026-04-24 09:28 | 22.58508 | 113.52730 | 17982 ft | 402 kts | 28° |
| 2026-04-24 09:28 | 22.60926 | 113.54264 | 18353 ft | 405 kts | 28° |
| 2026-04-24 09:28 | 22.63363 | 113.55810 | 18680 ft | 408 kts | 28° |
| 2026-04-24 09:28 | 22.65822 | 113.57370 | 19013 ft | 410 kts | 28° |
| 2026-04-24 09:29 | 22.68285 | 113.58935 | 19347 ft | 412 kts | 27° |
| 2026-04-24 09:29 | 22.70770 | 113.60513 | 19589 ft | 416 kts | 27° |
| 2026-04-24 09:29 | 22.73286 | 113.62111 | 19759 ft | 422 kts | 27° |
| 2026-04-24 09:29 | 22.75826 | 113.63726 | 20001 ft | 424 kts | 27° |
| 2026-04-24 09:30 | 22.78374 | 113.65347 | 20271 ft | 426 kts | 27° |
| 2026-04-24 09:30 | 22.80934 | 113.66977 | 20518 ft | 428 kts | 27° |
| 2026-04-24 09:30 | 22.83510 | 113.68618 | 20748 ft | 430 kts | 27° |
| 2026-04-24 09:30 | 22.86097 | 113.70266 | 20969 ft | 433 kts | 27° |
| 2026-04-24 09:31 | 22.88704 | 113.71928 | 21176 ft | 436 kts | 27° |
| 2026-04-24 09:31 | 22.91326 | 113.73600 | 21385 ft | 438 kts | 27° |
| 2026-04-24 09:31 | 22.93926 | 113.75258 | 21608 ft | 440 kts | 27° |
| 2026-04-24 09:31 | 22.96572 | 113.76947 | 21809 ft | 443 kts | 27° |
| 2026-04-24 09:32 | 22.99232 | 113.78647 | 22005 ft | 445 kts | 27° |
| 2026-04-24 09:32 | 23.01907 | 113.80356 | 22201 ft | 447 kts | 27° |
| 2026-04-24 09:32 | 23.04592 | 113.82072 | 22407 ft | 449 kts | 27° |
| 2026-04-24 09:32 | 23.07289 | 113.83796 | 22585 ft | 451 kts | 27° |
| 2026-04-24 09:33 | 23.09968 | 113.85592 | 22792 ft | 454 kts | 32° |
| 2026-04-24 09:33 | 23.12499 | 113.87660 | 22974 ft | 457 kts | 36° |
| 2026-04-24 09:33 | 23.14984 | 113.89836 | 23148 ft | 459 kts | 37° |
| 2026-04-24 09:33 | 23.17463 | 113.92038 | 23309 ft | 461 kts | 37° |
| 2026-04-24 09:34 | 23.19150 | 113.93525 | 23420 ft | 463 kts | 37° |
| 2026-04-24 09:34 | 23.21631 | 113.95689 | 23572 ft | 465 kts | 36° |
| 2026-04-24 09:34 | 23.24167 | 113.97877 | 23700 ft | 466 kts | 36° |
| 2026-04-24 09:34 | 23.26754 | 114.00097 | 23833 ft | 468 kts | 36° |
| 2026-04-24 09:35 | 23.29285 | 114.02270 | 23971 ft | 470 kts | 36° |
| 2026-04-24 09:35 | 23.31861 | 114.04473 | 24070 ft | 473 kts | 35° |
| 2026-04-24 09:35 | 23.34458 | 114.06686 | 24263 ft | 475 kts | 35° |
| 2026-04-24 09:35 | 23.37069 | 114.08908 | 24437 ft | 477 kts | 35° |
| 2026-04-24 09:36 | 23.39685 | 114.11137 | 24620 ft | 478 kts | 35° |
| 2026-04-24 09:36 | 23.42305 | 114.13373 | 24773 ft | 480 kts | 34° |
| 2026-04-24 09:36 | 23.44940 | 114.15622 | 24909 ft | 482 kts | 34° |
| 2026-04-24 09:36 | 23.47580 | 114.17880 | 25007 ft | 484 kts | 34° |
| 2026-04-24 09:37 | 23.50230 | 114.20148 | 25102 ft | 485 kts | 34° |
| 2026-04-24 09:37 | 23.52889 | 114.22421 | 25211 ft | 486 kts | 34° |
| 2026-04-24 09:37 | 23.55553 | 114.24702 | 25290 ft | 488 kts | 34° |
| 2026-04-24 09:37 | 23.58223 | 114.26993 | 25386 ft | 489 kts | 34° |
| 2026-04-24 09:38 | 23.60904 | 114.29293 | 25475 ft | 491 kts | 34° |
| 2026-04-24 09:38 | 23.63592 | 114.31598 | 25550 ft | 493 kts | 34° |
| 2026-04-24 09:38 | 23.66312 | 114.33880 | 25629 ft | 494 kts | 33° |
| 2026-04-24 09:38 | 23.69062 | 114.36134 | 25737 ft | 495 kts | 32° |
| 2026-04-24 09:39 | 23.71822 | 114.38378 | 25851 ft | 495 kts | 32° |
| 2026-04-24 09:39 | 23.74573 | 114.40613 | 25937 ft | 497 kts | 32° |
| 2026-04-24 09:39 | 23.77360 | 114.42886 | 26042 ft | 497 kts | 32° |
| 2026-04-24 09:39 | 23.80127 | 114.45151 | 26144 ft | 498 kts | 32° |
| 2026-04-24 09:40 | 23.82986 | 114.47155 | 26208 ft | 493 kts | 21° |
| 2026-04-24 09:40 | 23.86109 | 114.48634 | 26314 ft | 488 kts | 12° |
| 2026-04-24 09:40 | 23.89363 | 114.49575 | 26573 ft | 481 kts | 3° |
| 2026-04-24 09:40 | 23.92661 | 114.50209 | 26951 ft | 481 kts | 2° |
| 2026-04-24 09:41 | 23.95961 | 114.50814 | 27257 ft | 482 kts | 1° |
| 2026-04-24 09:41 | 23.99284 | 114.51420 | 27512 ft | 486 kts | 1° |
| 2026-04-24 09:41 | 24.02626 | 114.52040 | 27772 ft | 489 kts | 2° |
| 2026-04-24 09:41 | 24.05984 | 114.52678 | 28092 ft | 491 kts | 2° |
| 2026-04-24 09:42 | 24.09356 | 114.53330 | 28413 ft | 493 kts | 2° |
| 2026-04-24 09:42 | 24.12738 | 114.53991 | 28709 ft | 495 kts | 2° |
| 2026-04-24 09:42 | 24.16136 | 114.54660 | 29019 ft | 497 kts | 2° |
| 2026-04-24 09:42 | 24.19545 | 114.55333 | 29316 ft | 499 kts | 2° |
| 2026-04-24 09:43 | 24.22972 | 114.56010 | 29619 ft | 501 kts | 2° |
| 2026-04-24 09:43 | 24.26403 | 114.56688 | 29987 ft | 501 kts | 2° |
| 2026-04-24 09:43 | 24.29820 | 114.57366 | 30466 ft | 497 kts | 1° |
| 2026-04-24 09:43 | 24.33215 | 114.58038 | 30848 ft | 496 kts | 1° |
| 2026-04-24 09:44 | 24.36608 | 114.58709 | 31195 ft | 495 kts | 1° |
| 2026-04-24 09:44 | 24.40001 | 114.59378 | 31509 ft | 495 kts | 1° |
| 2026-04-24 09:44 | 24.43388 | 114.60046 | 31859 ft | 494 kts | 0° |
| 2026-04-24 09:44 | 24.46765 | 114.60714 | 32262 ft | 492 kts | 0° |
| 2026-04-24 09:45 | 24.50130 | 114.61380 | 32628 ft | 491 kts | 360° |
| 2026-04-24 09:45 | 24.53448 | 114.62035 | 32949 ft | 491 kts | 359° |
| 2026-04-24 09:45 | 24.56812 | 114.62700 | 33280 ft | 491 kts | 359° |
| 2026-04-24 09:45 | 24.60173 | 114.63365 | 33629 ft | 490 kts | 359° |
| 2026-04-24 09:46 | 24.63529 | 114.64029 | 33929 ft | 490 kts | 359° |
| 2026-04-24 09:46 | 24.66887 | 114.64694 | 34219 ft | 490 kts | 358° |
| 2026-04-24 09:46 | 24.70237 | 114.65360 | 34508 ft | 488 kts | 358° |
| 2026-04-24 09:46 | 24.73573 | 114.66023 | 34801 ft | 487 kts | 358° |
| 2026-04-24 09:47 | 24.76906 | 114.66685 | 35017 ft | 486 kts | 358° |
| 2026-04-24 09:47 | 24.80238 | 114.67346 | 35153 ft | 488 kts | 358° |
| 2026-04-24 09:47 | 24.86967 | 114.68676 | 35132 ft | 491 kts | 358° |
| 2026-04-24 09:48 | 24.93668 | 114.70015 | 35126 ft | 488 kts | 358° |
| 2026-04-24 09:48 | 25.00329 | 114.71346 | 35131 ft | 485 kts | 358° |
| 2026-04-24 09:49 | 25.06959 | 114.72669 | 35126 ft | 483 kts | 358° |
| 2026-04-24 09:49 | 25.13576 | 114.73988 | 35125 ft | 483 kts | 358° |
| 2026-04-24 09:50 | 25.20194 | 114.75308 | 35133 ft | 484 kts | 358° |
| 2026-04-24 09:50 | 25.26829 | 114.76633 | 35140 ft | 486 kts | 358° |
| 2026-04-24 09:51 | 25.33498 | 114.77968 | 35140 ft | 488 kts | 358° |
| 2026-04-24 09:51 | 25.40197 | 114.79311 | 35133 ft | 490 kts | 358° |
| 2026-04-24 09:52 | 25.46880 | 114.80654 | 35135 ft | 492 kts | 358° |
| 2026-04-24 09:52 | 25.53635 | 114.82013 | 35137 ft | 494 kts | 358° |
| 2026-04-24 09:53 | 25.60409 | 114.83377 | 35131 ft | 495 kts | 358° |
| 2026-04-24 09:53 | 25.67190 | 114.84745 | 35129 ft | 495 kts | 358° |
| 2026-04-24 09:54 | 25.73964 | 114.86113 | 35123 ft | 494 kts | 358° |
| 2026-04-24 09:54 | 25.77343 | 114.86953 | 35119 ft | 506 kts | 7° |
| 2026-04-24 09:54 | 25.80637 | 114.88503 | 35134 ft | 523 kts | 19° |
| 2026-04-24 09:55 | 25.83699 | 114.90761 | 35135 ft | 534 kts | 33° |
| 2026-04-24 09:55 | 25.86382 | 114.93647 | 35146 ft | 538 kts | 40° |
| 2026-04-24 09:55 | 25.91431 | 114.99791 | 35135 ft | 539 kts | 42° |
| 2026-04-24 09:56 | 25.96486 | 115.06001 | 35153 ft | 546 kts | 41° |
| 2026-04-24 09:56 | 26.01661 | 115.12218 | 35161 ft | 555 kts | 41° |
| 2026-04-24 09:57 | 26.06983 | 115.18542 | 35142 ft | 564 kts | 41° |
| 2026-04-24 09:57 | 26.12382 | 115.24960 | 35140 ft | 571 kts | 41° |
| 2026-04-24 09:58 | 26.17821 | 115.31451 | 35143 ft | 574 kts | 41° |
| 2026-04-24 09:58 | 26.23272 | 115.37973 | 35146 ft | 576 kts | 41° |
| 2026-04-24 09:59 | 26.28723 | 115.44504 | 35141 ft | 576 kts | 41° |
| 2026-04-24 09:59 | 26.34173 | 115.51041 | 35127 ft | 575 kts | 41° |
| 2026-04-24 10:00 | 26.39603 | 115.57563 | 35135 ft | 572 kts | 41° |
| 2026-04-24 10:00 | 26.45001 | 115.64051 | 35141 ft | 569 kts | 41° |
| 2026-04-24 10:01 | 26.50376 | 115.70525 | 35150 ft | 568 kts | 41° |
| 2026-04-24 10:01 | 26.55743 | 115.77003 | 35147 ft | 568 kts | 42° |
| 2026-04-24 10:02 | 26.61074 | 115.83443 | 35148 ft | 568 kts | 42° |
| 2026-04-24 10:02 | 26.66443 | 115.89935 | 35149 ft | 569 kts | 42° |
| 2026-04-24 10:03 | 26.71809 | 115.96436 | 35147 ft | 569 kts | 42° |
| 2026-04-24 10:03 | 26.77170 | 116.02942 | 35149 ft | 568 kts | 42° |
| 2026-04-24 10:04 | 26.82523 | 116.09448 | 35143 ft | 568 kts | 42° |
| 2026-04-24 10:04 | 26.87879 | 116.15965 | 35154 ft | 568 kts | 42° |
| 2026-04-24 10:05 | 26.93238 | 116.22488 | 35140 ft | 568 kts | 42° |
| 2026-04-24 10:05 | 26.98618 | 116.28979 | 35151 ft | 568 kts | 42° |
| 2026-04-24 10:06 | 27.06694 | 116.38708 | 35155 ft | 568 kts | 42° |
| 2026-04-24 10:07 | 27.12074 | 116.45213 | 35150 ft | 568 kts | 42° |
| 2026-04-24 10:07 | 27.17450 | 116.51727 | 35146 ft | 568 kts | 42° |
| 2026-04-24 10:08 | 27.22834 | 116.58225 | 35148 ft | 568 kts | 41° |
| 2026-04-24 10:08 | 27.28319 | 116.64604 | 35157 ft | 567 kts | 40° |
| 2026-04-24 10:09 | 27.33821 | 116.70955 | 35159 ft | 567 kts | 40° |
| 2026-04-24 10:09 | 27.39303 | 116.77337 | 35155 ft | 568 kts | 41° |
| 2026-04-24 10:10 | 27.44773 | 116.83739 | 35147 ft | 567 kts | 41° |
| 2026-04-24 10:10 | 27.50240 | 116.90144 | 35150 ft | 567 kts | 41° |
| 2026-04-24 10:11 | 27.55718 | 116.96531 | 34970 ft | 568 kts | 41° |
| 2026-04-24 10:11 | 27.58475 | 116.99714 | 34825 ft | 565 kts | 40° |
| 2026-04-24 10:11 | 27.61214 | 117.02872 | 34626 ft | 560 kts | 40° |
| 2026-04-24 10:11 | 27.63900 | 117.05972 | 34455 ft | 558 kts | 41° |
| 2026-04-24 10:12 | 27.66597 | 117.09091 | 34262 ft | 553 kts | 41° |
| 2026-04-24 10:12 | 27.69266 | 117.12184 | 34072 ft | 547 kts | 41° |
| 2026-04-24 10:12 | 27.71918 | 117.15260 | 33903 ft | 547 kts | 41° |
| 2026-04-24 10:12 | 27.74572 | 117.18337 | 33684 ft | 547 kts | 41° |
| 2026-04-24 10:13 | 27.77228 | 117.21421 | 33481 ft | 547 kts | 41° |
| 2026-04-24 10:13 | 27.79875 | 117.24499 | 33273 ft | 547 kts | 41° |
| 2026-04-24 10:13 | 27.82530 | 117.27588 | 33021 ft | 547 kts | 41° |
| 2026-04-24 10:13 | 27.85199 | 117.30660 | 32764 ft | 548 kts | 41° |
| 2026-04-24 10:14 | 27.87848 | 117.33744 | 32558 ft | 547 kts | 41° |
| 2026-04-24 10:14 | 27.90484 | 117.36834 | 32376 ft | 546 kts | 42° |
| 2026-04-24 10:14 | 27.93122 | 117.39930 | 32171 ft | 546 kts | 42° |
| 2026-04-24 10:14 | 27.95756 | 117.43017 | 31996 ft | 546 kts | 42° |
| 2026-04-24 10:15 | 27.98399 | 117.46111 | 31766 ft | 547 kts | 41° |
| 2026-04-24 10:15 | 28.01040 | 117.49196 | 31577 ft | 547 kts | 42° |
| 2026-04-24 10:15 | 28.03685 | 117.52291 | 31407 ft | 546 kts | 42° |
| 2026-04-24 10:15 | 28.06325 | 117.55386 | 31211 ft | 546 kts | 42° |
| 2026-04-24 10:16 | 28.08967 | 117.58484 | 31031 ft | 547 kts | 42° |
| 2026-04-24 10:16 | 28.11614 | 117.61587 | 30834 ft | 548 kts | 42° |
| 2026-04-24 10:16 | 28.14265 | 117.64696 | 30650 ft | 549 kts | 42° |
| 2026-04-24 10:16 | 28.16916 | 117.67808 | 30477 ft | 549 kts | 42° |
| 2026-04-24 10:17 | 28.19571 | 117.70927 | 30293 ft | 550 kts | 42° |
| 2026-04-24 10:17 | 28.22229 | 117.74054 | 30112 ft | 551 kts | 42° |
| 2026-04-24 10:17 | 28.24893 | 117.77191 | 29905 ft | 552 kts | 42° |
| 2026-04-24 10:17 | 28.27553 | 117.80326 | 29685 ft | 552 kts | 42° |
| 2026-04-24 10:18 | 28.30225 | 117.83476 | 29471 ft | 555 kts | 42° |
| 2026-04-24 10:18 | 28.32871 | 117.86598 | 29274 ft | 558 kts | 42° |
| 2026-04-24 10:18 | 28.35601 | 117.89822 | 29063 ft | 558 kts | 42° |
| 2026-04-24 10:18 | 28.38246 | 117.92950 | 28853 ft | 557 kts | 42° |
| 2026-04-24 10:19 | 28.40932 | 117.96127 | 28644 ft | 557 kts | 42° |
| 2026-04-24 10:19 | 28.43604 | 117.99314 | 28436 ft | 557 kts | 43° |
| 2026-04-24 10:19 | 28.46244 | 118.02531 | 28226 ft | 557 kts | 43° |
| 2026-04-24 10:19 | 28.48869 | 118.05769 | 28031 ft | 557 kts | 44° |
| 2026-04-24 10:20 | 28.51486 | 118.09014 | 27836 ft | 556 kts | 44° |
| 2026-04-24 10:20 | 28.54097 | 118.12253 | 27628 ft | 556 kts | 44° |
| 2026-04-24 10:20 | 28.56714 | 118.15493 | 27432 ft | 555 kts | 44° |
| 2026-04-24 10:20 | 28.59328 | 118.18725 | 27231 ft | 555 kts | 44° |
| 2026-04-24 10:21 | 28.61941 | 118.21952 | 27039 ft | 554 kts | 44° |
| 2026-04-24 10:21 | 28.64553 | 118.25177 | 26847 ft | 554 kts | 44° |
| 2026-04-24 10:21 | 28.67165 | 118.28401 | 26650 ft | 554 kts | 44° |
| 2026-04-24 10:21 | 28.69776 | 118.31626 | 26462 ft | 553 kts | 44° |
| 2026-04-24 10:22 | 28.72382 | 118.34849 | 26273 ft | 553 kts | 44° |
| 2026-04-24 10:22 | 28.74109 | 118.36987 | 26146 ft | 553 kts | 44° |
| 2026-04-24 10:22 | 28.76711 | 118.40215 | 25918 ft | 551 kts | 44° |
| 2026-04-24 10:22 | 28.79293 | 118.43410 | 25657 ft | 544 kts | 43° |
| 2026-04-24 10:23 | 28.81818 | 118.46533 | 25361 ft | 529 kts | 44° |
| 2026-04-24 10:23 | 28.84279 | 118.49593 | 25088 ft | 515 kts | 44° |
| 2026-04-24 10:23 | 28.86664 | 118.52561 | 24808 ft | 501 kts | 44° |
| 2026-04-24 10:23 | 28.88987 | 118.55452 | 24525 ft | 489 kts | 44° |
| 2026-04-24 10:24 | 28.91260 | 118.58283 | 24254 ft | 478 kts | 43° |
| 2026-04-24 10:24 | 28.93486 | 118.61057 | 23982 ft | 470 kts | 44° |
| 2026-04-24 10:24 | 28.95686 | 118.63798 | 23719 ft | 468 kts | 44° |
| 2026-04-24 10:24 | 28.97884 | 118.66539 | 23431 ft | 467 kts | 44° |
| 2026-04-24 10:25 | 29.00073 | 118.69269 | 23109 ft | 466 kts | 44° |
| 2026-04-24 10:25 | 29.02255 | 118.71995 | 22797 ft | 464 kts | 44° |
| 2026-04-24 10:25 | 29.04430 | 118.74714 | 22492 ft | 462 kts | 44° |
| 2026-04-24 10:25 | 29.06598 | 118.77428 | 22177 ft | 460 kts | 44° |
| 2026-04-24 10:26 | 29.08750 | 118.80126 | 21892 ft | 458 kts | 44° |
| 2026-04-24 10:26 | 29.10882 | 118.82804 | 21582 ft | 453 kts | 44° |
| 2026-04-24 10:26 | 29.12991 | 118.85452 | 21283 ft | 447 kts | 44° |
| 2026-04-24 10:26 | 29.15072 | 118.88065 | 20988 ft | 443 kts | 44° |
| 2026-04-24 10:27 | 29.17114 | 118.90633 | 20798 ft | 431 kts | 44° |
| 2026-04-24 10:27 | 29.19097 | 118.93139 | 20790 ft | 416 kts | 44° |
| 2026-04-24 10:27 | 29.20980 | 118.95506 | 20777 ft | 400 kts | 44° |
| 2026-04-24 10:27 | 29.22845 | 118.97851 | 20770 ft | 387 kts | 44° |
| 2026-04-24 10:28 | 29.24650 | 119.00121 | 20774 ft | 384 kts | 44° |
| 2026-04-24 10:28 | 29.26433 | 119.02363 | 20795 ft | 389 kts | 44° |
| 2026-04-24 10:28 | 29.28270 | 119.04676 | 20763 ft | 394 kts | 44° |
| 2026-04-24 10:28 | 29.30111 | 119.07000 | 20566 ft | 394 kts | 44° |
| 2026-04-24 10:29 | 29.31945 | 119.09318 | 20375 ft | 390 kts | 44° |
| 2026-04-24 10:29 | 29.33753 | 119.11604 | 20179 ft | 385 kts | 44° |
| 2026-04-24 10:29 | 29.35546 | 119.13872 | 19982 ft | 381 kts | 44° |
| 2026-04-24 10:29 | 29.37315 | 119.16111 | 19795 ft | 378 kts | 44° |
| 2026-04-24 10:30 | 29.39068 | 119.18332 | 19616 ft | 375 kts | 44° |
| 2026-04-24 10:30 | 29.40790 | 119.20517 | 19440 ft | 373 kts | 43° |
| 2026-04-24 10:30 | 29.42540 | 119.22738 | 19246 ft | 372 kts | 44° |
| 2026-04-24 10:30 | 29.44274 | 119.24939 | 19060 ft | 370 kts | 44° |
| 2026-04-24 10:31 | 29.45993 | 119.27123 | 18883 ft | 369 kts | 44° |
| 2026-04-24 10:31 | 29.47707 | 119.29304 | 18684 ft | 368 kts | 44° |
| 2026-04-24 10:31 | 29.49426 | 119.31492 | 18466 ft | 369 kts | 44° |
| 2026-04-24 10:31 | 29.51150 | 119.33687 | 18219 ft | 369 kts | 44° |
| 2026-04-24 10:32 | 29.52865 | 119.35870 | 17957 ft | 369 kts | 44° |
| 2026-04-24 10:32 | 29.54581 | 119.38057 | 17703 ft | 368 kts | 44° |
| 2026-04-24 10:32 | 29.56289 | 119.40232 | 17448 ft | 365 kts | 44° |
| 2026-04-24 10:32 | 29.57988 | 119.42395 | 17193 ft | 363 kts | 44° |
| 2026-04-24 10:33 | 29.59669 | 119.44541 | 16932 ft | 359 kts | 44° |
| 2026-04-24 10:33 | 29.61334 | 119.46663 | 16676 ft | 355 kts | 44° |
| 2026-04-24 10:33 | 29.62990 | 119.48755 | 16305 ft | 353 kts | 41° |
| 2026-04-24 10:33 | 29.64846 | 119.50512 | 15826 ft | 350 kts | 30° |
| 2026-04-24 10:34 | 29.66864 | 119.52070 | 15397 ft | 349 kts | 28° |
| 2026-04-24 10:34 | 29.68902 | 119.53590 | 14944 ft | 350 kts | 28° |
| 2026-04-24 10:34 | 29.70939 | 119.55120 | 14500 ft | 350 kts | 29° |
| 2026-04-24 10:34 | 29.72975 | 119.56668 | 14070 ft | 350 kts | 29° |
| 2026-04-24 10:35 | 29.74998 | 119.58228 | 13603 ft | 350 kts | 30° |
| 2026-04-24 10:35 | 29.77004 | 119.59795 | 13259 ft | 346 kts | 31° |
| 2026-04-24 10:35 | 29.78971 | 119.61337 | 13030 ft | 338 kts | 31° |
| 2026-04-24 10:35 | 29.80901 | 119.62849 | 12774 ft | 332 kts | 31° |
| 2026-04-24 10:36 | 29.82792 | 119.64330 | 12552 ft | 325 kts | 31° |
| 2026-04-24 10:36 | 29.84638 | 119.65778 | 12311 ft | 318 kts | 31° |
| 2026-04-24 10:36 | 29.86474 | 119.67146 | 12091 ft | 310 kts | 26° |
| 2026-04-24 10:36 | 29.88364 | 119.68313 | 11868 ft | 306 kts | 24° |
| 2026-04-24 10:37 | 29.90255 | 119.69414 | 11650 ft | 304 kts | 23° |
| 2026-04-24 10:37 | 29.92140 | 119.70512 | 11437 ft | 302 kts | 24° |
| 2026-04-24 10:37 | 29.94011 | 119.71615 | 11225 ft | 302 kts | 24° |
| 2026-04-24 10:37 | 29.95869 | 119.72726 | 10998 ft | 301 kts | 25° |
| 2026-04-24 10:38 | 29.97726 | 119.73845 | 10794 ft | 300 kts | 25° |
| 2026-04-24 10:38 | 29.99566 | 119.74958 | 10560 ft | 299 kts | 25° |
| 2026-04-24 10:38 | 30.01410 | 119.76075 | 10322 ft | 299 kts | 26° |
| 2026-04-24 10:38 | 30.03182 | 119.77323 | 10073 ft | 301 kts | 40° |
| 2026-04-24 10:39 | 30.04446 | 119.79233 | 9804 ft | 302 kts | 59° |
| 2026-04-24 10:39 | 30.05431 | 119.81386 | 9328 ft | 305 kts | 62° |
| 2026-04-24 10:39 | 30.06392 | 119.83579 | 8869 ft | 307 kts | 62° |
| 2026-04-24 10:39 | 30.07355 | 119.85774 | 8423 ft | 308 kts | 62° |
| 2026-04-24 10:40 | 30.08332 | 119.87984 | 7970 ft | 309 kts | 62° |
| 2026-04-24 10:40 | 30.09304 | 119.90165 | 7534 ft | 309 kts | 62° |
| 2026-04-24 10:40 | 30.10305 | 119.92398 | 7083 ft | 309 kts | 62° |
| 2026-04-24 10:40 | 30.11291 | 119.94590 | 6658 ft | 305 kts | 62° |
| 2026-04-24 10:41 | 30.12255 | 119.96734 | 6199 ft | 297 kts | 62° |
| 2026-04-24 10:41 | 30.13178 | 119.98793 | 5745 ft | 290 kts | 62° |
| 2026-04-24 10:41 | 30.14107 | 120.00873 | 5297 ft | 291 kts | 63° |
| 2026-04-24 10:41 | 30.14607 | 120.03162 | 4955 ft | 290 kts | 90° |
| 2026-04-24 10:42 | 30.14180 | 120.05342 | 4908 ft | 279 kts | 115° |
| 2026-04-24 10:42 | 30.13045 | 120.07110 | 4684 ft | 274 kts | 137° |
| 2026-04-24 10:42 | 30.11522 | 120.08387 | 4427 ft | 269 kts | 137° |
| 2026-04-24 10:42 | 30.10588 | 120.10197 | 4148 ft | 263 kts | 99° |
| 2026-04-24 10:43 | 30.10802 | 120.12226 | 3949 ft | 253 kts | 61° |
| 2026-04-24 10:43 | 30.11718 | 120.13890 | 3933 ft | 240 kts | 58° |
| 2026-04-24 10:43 | 30.12523 | 120.15503 | 3899 ft | 223 kts | 59° |
| 2026-04-24 10:43 | 30.13269 | 120.16987 | 3884 ft | 205 kts | 60° |
| 2026-04-24 10:44 | 30.13921 | 120.18375 | 3876 ft | 190 kts | 61° |
| 2026-04-24 10:44 | 30.14524 | 120.19716 | 3877 ft | 187 kts | 62° |
| 2026-04-24 10:44 | 30.15117 | 120.21058 | 3810 ft | 187 kts | 62° |
| 2026-04-24 10:44 | 30.15703 | 120.22388 | 3577 ft | 184 kts | 62° |
| 2026-04-24 10:45 | 30.16276 | 120.23694 | 3352 ft | 179 kts | 62° |
| 2026-04-24 10:45 | 30.16831 | 120.24955 | 3119 ft | 174 kts | 62° |
| 2026-04-24 10:45 | 30.17372 | 120.26186 | 2876 ft | 169 kts | 62° |
| 2026-04-24 10:45 | 30.17895 | 120.27376 | 2643 ft | 161 kts | 62° |
| 2026-04-24 10:46 | 30.18384 | 120.28488 | 2476 ft | 155 kts | 62° |
| 2026-04-24 10:46 | 30.18875 | 120.29605 | 2238 ft | 154 kts | 62° |
| 2026-04-24 10:46 | 30.19356 | 120.30697 | 2027 ft | 151 kts | 62° |
| 2026-04-24 10:46 | 30.19828 | 120.31770 | 1819 ft | 150 kts | 61° |
| 2026-04-24 10:47 | 30.20300 | 120.32843 | 1621 ft | 149 kts | 61° |
| 2026-04-24 10:47 | 30.20771 | 120.33911 | 1418 ft | 150 kts | 61° |
| 2026-04-24 10:47 | 30.21242 | 120.34981 | 1218 ft | 149 kts | 62° |
| 2026-04-24 10:47 | 30.21713 | 120.36051 | 1010 ft | 149 kts | 62° |
| 2026-04-24 10:48 | 30.22183 | 120.37118 | 793 ft | 148 kts | 62° |
| 2026-04-24 10:48 | 30.22652 | 120.38181 | 580 ft | 149 kts | 62° |
| 2026-04-24 10:48 | 30.23120 | 120.39244 | 382 ft | 148 kts | 62° |
| 2026-04-24 10:48 | 30.23589 | 120.40308 | 170 ft | 148 kts | 62° |
| 2026-04-24 10:49 | 30.24049 | 120.41348 | 31 ft | 139 kts | 62° |
| 2026-04-24 10:49 | 30.24403 | 120.42139 | 30 ft | 81 kts | 66° |
| 2026-04-24 10:49 | 30.24570 | 120.42527 | 25 ft | 38 kts | 62° |
| 2026-04-24 10:49 | 30.24684 | 120.42774 | 28 ft | 17 kts | 61° |
| 2026-04-24 10:50 | 30.24727 | 120.42902 | 29 ft | 17 kts | 77° |
| 2026-04-24 10:50 | 30.24729 | 120.43034 | 32 ft | 16 kts | 92° |
| 2026-04-24 10:50 | 30.24728 | 120.43071 | 32 ft | 0 kts | 92° |